CheckWX is a tool to help pilots better visualize weather data.  It is not intended as a substitute for an official pre-flight weather briefing.

20:48:45 UTC

KMSP TAF
Minneapolis-St Paul International / Wold-Chamberlain Airport
Minneapolis, Minnesota, USA
KMSP 161739Z 1618/1724 12006KT P6SM SCT040 FM170900 VRB03KT P6SM SCT012 FM171600 19004KT P6SM SCT040 FM172200 26004KT P6SM SCT050

Jun-16@
18:00 UTC

Jun-16 @ 18:00 UTC

Jun-17@
09:00 UTC

Jun-17 @ 09:00 UTC

KMSP 161739Z 1618/1724 12006KT P6SM SCT040
Wind
  • 120° at 6 KTS
Cloud Levels
  • Scattered at 4,000' AGL

Jun-17@
09:00 UTC

Jun-17 @ 09:00 UTC

Jun-17@
16:00 UTC

Jun-17 @ 16:00 UTC

FM170900 VRB03KT P6SM SCT012

From

From Standard forecast or significant change

Wind
  • Variable at 3 KTS
Cloud Levels
  • Scattered at 1,200' AGL

Jun-17@
16:00 UTC

Jun-17 @ 16:00 UTC

Jun-17@
22:00 UTC

Jun-17 @ 22:00 UTC

FM171600 19004KT P6SM SCT040

From

From Standard forecast or significant change

Wind
  • 190° at 4 KTS
Cloud Levels
  • Scattered at 4,000' AGL

Jun-17@
22:00 UTC

Jun-17 @ 22:00 UTC

Jun-18@
00:00 UTC

Jun-18 @ 00:00 UTC

FM172200 26004KT P6SM SCT050

From

From Standard forecast or significant change

Wind
  • 260° at 4 KTS
Cloud Levels
  • Scattered at 5,000' AGL